Time;durP1;ratioP1;P1;durP2;ratioP2;P2;SDS_P1;SDS_P2;PMS_P1;PMS_P2;Temp;Humidity;BMP_temperature;BMP_pressure;BME280_temperature;BME280_humidity;BME280_pressure;Samples;Min_cycle;Max_cycle;Signal;HPM_P1;HPM_P2
2022/02/06 00:03:04;;;;;;;44.38;26.98;;;6.60;99.90;;;;;;5032767;28;20040;-69
2022/02/06 00:06:08;;;;;;;64.90;29.88;;;6.60;99.90;;;;;;5034273;28;20052;-69
2022/02/06 00:09:12;;;;;;;39.95;25.52;;;6.60;99.90;;;;;;5031600;28;20048;-69
2022/02/06 00:12:16;;;;;;;55.83;29.35;;;6.50;99.90;;;;;;5032703;28;20492;-69
2022/02/06 00:15:21;;;;;;;269.00;44.60;;;6.50;99.90;;;;;;5034985;28;20044;-69
2022/02/06 00:18:25;;;;;;;80.35;29.65;;;6.40;99.90;;;;;;5034120;28;20048;-68
2022/02/06 00:21:32;;;;;;;120.72;29.77;;;6.30;99.90;;;;;;5035059;28;20512;-69
2022/02/06 00:24:45;;;;;;;256.75;38.15;;;6.20;99.90;;;;;;5036398;28;20064;-69
2022/02/06 00:43:46;;;;;;;29.80;18.85;;;5.50;99.90;;;;;;5032376;28;20400;-70
2022/02/06 00:46:50;;;;;;;28.73;16.33;;;5.50;99.90;;;;;;5032450;28;20399;-69
2022/02/06 00:49:58;;;;;;;57.33;30.20;;;5.60;99.90;;;;;;5032518;28;20044;-69
2022/02/06 00:53:09;;;;;;;47.28;27.48;;;5.60;99.90;;;;;;5032445;28;20048;-69
2022/02/06 00:56:13;;;;;;;53.75;28.92;;;5.70;99.90;;;;;;5032204;28;20052;-69
2022/02/06 00:59:17;;;;;;;39.20;23.65;;;5.80;99.90;;;;;;5032134;28;20037;-69
2022/02/06 01:02:22;;;;;;;43.17;26.58;;;5.80;99.90;;;;;;5032782;28;20045;-68
2022/02/06 01:05:27;;;;;;;41.83;24.42;;;5.90;99.90;;;;;;5032212;28;20048;-68
2022/02/06 01:08:31;;;;;;;42.45;25.30;;;6.00;99.90;;;;;;5032691;28;20052;-69
2022/02/06 01:11:36;;;;;;;41.63;22.67;;;6.10;99.90;;;;;;5032014;28;20044;-69
2022/02/06 01:18:01;;;;;;;34.13;19.10;;;6.00;99.90;;;;;;5031482;28;20049;-69
2022/02/06 01:21:18;;;;;;;31.30;17.70;;;5.90;99.90;;;;;;5032538;28;20499;-69
2022/02/06 01:24:42;;;;;;;26.05;15.88;;;5.80;99.90;;;;;;5031910;28;20044;-69
2022/02/06 01:34:28;;;;;;;36.25;22.10;;;5.50;99.90;;;;;;5035046;28;20060;-68
2022/02/06 01:37:44;;;;;;;39.17;22.27;;;5.60;99.90;;;;;;5034056;28;20602;-69
2022/02/06 01:44:04;;;;;;;45.03;25.10;;;5.60;99.90;;;;;;5033692;28;20401;-68
2022/02/06 02:01:12;;;;;;;;;;;5.60;99.90;;;;;;5031635;28;20388;-68
2022/02/06 02:14:02;;;;;;;19.05;11.52;;;5.50;99.90;;;;;;5030861;28;20044;-68
2022/02/06 02:17:42;;;;;;;29.77;13.70;;;5.50;99.90;;;;;;5033089;28;20036;-69
2022/02/06 02:21:11;;;;;;;37.58;18.02;;;5.50;99.90;;;;;;5033208;28;20306;-68
2022/02/06 02:47:19;;;;;;;20.10;12.55;;;4.70;99.90;;;;;;5032733;28;20535;-69
2022/02/06 02:50:24;;;;;;;21.13;11.77;;;4.80;99.90;;;;;;5031186;28;20044;-69
2022/02/06 02:53:37;;;;;;;35.17;15.52;;;4.80;99.90;;;;;;5030207;28;20393;-70
2022/02/06 02:56:46;;;;;;;35.58;13.90;;;4.90;99.90;;;;;;5030141;28;20081;-69
2022/02/06 03:03:10;;;;;;;28.02;13.00;;;5.00;99.90;;;;;;5032052;28;20044;-68
2022/02/06 03:06:15;;;;;;;34.67;13.75;;;5.00;99.90;;;;;;5033522;28;20040;-69
2022/02/06 03:09:21;;;;;;;22.52;12.98;;;5.00;99.90;;;;;;5031934;28;20045;-69
2022/02/06 03:12:28;;;;;;;44.72;13.63;;;5.00;99.90;;;;;;5031197;28;20068;-69
2022/02/06 03:15:41;;;;;;;17.17;10.73;;;5.00;99.90;;;;;;5031241;28;20060;-68
2022/02/06 03:19:09;;;;;;;69.57;14.68;;;4.90;99.90;;;;;;5031176;28;20381;-69
2022/02/06 03:22:19;;;;;;;35.28;11.18;;;4.80;99.90;;;;;;5030758;28;20052;-69
2022/02/06 03:25:25;;;;;;;58.13;12.95;;;4.70;99.90;;;;;;5031772;28;20045;-68
2022/02/06 03:28:29;;;;;;;23.05;11.98;;;4.50;99.90;;;;;;5032377;28;20053;-68
2022/02/06 03:31:36;;;;;;;56.35;13.60;;;4.40;99.90;;;;;;5032811;28;20064;-69
2022/02/06 03:34:41;;;;;;;66.70;12.15;;;4.30;99.90;;;;;;5031305;28;20041;-69
2022/02/06 03:37:45;;;;;;;82.55;11.40;;;4.00;99.90;;;;;;5032809;28;20499;-69
2022/02/06 03:40:55;;;;;;;12.48;8.50;;;3.90;99.90;;;;;;5036116;28;20053;-68
2022/02/06 03:44:08;;;;;;;55.92;10.32;;;3.70;99.90;;;;;;5037167;28;20048;-69
2022/02/06 03:47:18;;;;;;;41.72;10.52;;;3.60;99.90;;;;;;5036172;28;20044;-69
2022/02/06 03:50:32;;;;;;;22.13;9.98;;;3.50;99.90;;;;;;5036064;28;20049;-69
2022/02/06 03:53:39;;;;;;;160.48;16.83;;;3.70;99.90;;;;;;5035266;28;20053;-69
2022/02/06 03:56:44;;;;;;;115.32;14.60;;;3.70;99.90;;;;;;5032972;28;20064;-69
2022/02/06 03:59:49;;;;;;;27.20;9.98;;;3.70;99.90;;;;;;5033984;28;20040;-68
2022/02/06 04:02:53;;;;;;;142.55;14.38;;;3.70;99.90;;;;;;5033698;28;20117;-69
2022/02/06 04:05:57;;;;;;;143.82;14.32;;;3.70;99.90;;;;;;5032797;28;20499;-69
2022/02/06 04:09:08;;;;;;;145.95;14.98;;;3.60;99.90;;;;;;5032952;28;20415;-69
2022/02/06 04:12:15;;;;;;;27.57;8.27;;;3.70;99.90;;;;;;5032725;28;20040;-68
2022/02/06 04:19:06;;;;;;;57.97;9.07;;;3.60;99.90;;;;;;5035172;28;20389;-69
2022/02/06 04:21:56;;;;;;;38.95;8.48;;;3.60;99.90;;;;;;5035910;28;20048;-69
2022/02/06 04:25:01;;;;;;;10.40;8.02;;;3.60;99.90;;;;;;5034635;28;20040;-69
2022/02/06 04:28:05;;;;;;;73.43;13.60;;;3.60;99.90;;;;;;5033819;28;20044;-68
2022/02/06 04:31:10;;;;;;;12.25;8.65;;;3.50;99.90;;;;;;5032735;28;20439;-69
2022/02/06 04:34:22;;;;;;;20.48;9.45;;;3.40;99.90;;;;;;5034431;28;20053;-69
2022/02/06 04:51:11;;;;;;;17.55;10.13;;;2.90;99.90;;;;;;5031828;28;20048;-70
2022/02/06 05:30:08;;;;;;;60.42;15.85;;;3.40;99.90;;;;;;5031089;28;20048;-69
2022/02/06 05:33:13;;;;;;;32.40;11.82;;;3.50;99.90;;;;;;5030758;28;20040;-69
2022/02/06 05:36:18;;;;;;;124.88;16.73;;;3.50;99.90;;;;;;5030287;28;20048;-69
2022/02/06 05:39:22;;;;;;;341.75;23.58;;;3.60;99.90;;;;;;5030530;28;20056;-69
2022/02/06 05:42:26;;;;;;;19.50;11.07;;;3.60;99.90;;;;;;5031544;28;20052;-69
2022/02/06 05:45:30;;;;;;;101.90;15.48;;;3.60;99.90;;;;;;5031537;28;20068;-69
2022/02/06 05:48:34;;;;;;;96.20;14.18;;;3.50;99.90;;;;;;5031043;28;20635;-68
2022/02/06 05:51:40;;;;;;;20.35;11.40;;;3.40;99.90;;;;;;5031380;28;20056;-69
2022/02/06 05:54:43;;;;;;;96.22;15.65;;;3.40;99.90;;;;;;5031220;28;20057;-69
2022/02/06 05:57:47;;;;;;;337.17;26.63;;;3.40;99.90;;;;;;5031030;28;20044;-69
2022/02/06 06:00:51;;;;;;;245.00;22.13;;;3.40;99.90;;;;;;5030969;28;20048;-69
2022/02/06 06:03:55;;;;;;;135.00;18.27;;;3.40;99.90;;;;;;5030006;28;20056;-68
2022/02/06 06:07:01;;;;;;;46.15;13.30;;;3.40;99.90;;;;;;5031013;28;20044;-69
2022/02/06 06:10:05;;;;;;;45.92;13.80;;;3.40;99.90;;;;;;5030368;28;20133;-69
2022/02/06 06:13:10;;;;;;;93.25;13.48;;;3.30;99.90;;;;;;5030685;28;20053;-69
2022/02/06 06:16:14;;;;;;;32.95;12.43;;;3.30;99.90;;;;;;5033033;28;20095;-69
2022/02/06 06:19:18;;;;;;;19.55;11.35;;;3.20;99.90;;;;;;5030663;28;20045;-69
2022/02/06 06:22:23;;;;;;;77.30;15.05;;;3.10;99.90;;;;;;5034019;28;20049;-69
2022/02/06 06:25:35;;;;;;;142.18;18.45;;;3.10;99.90;;;;;;5032375;28;20064;-69
2022/02/06 06:28:39;;;;;;;65.55;12.20;;;3.10;99.90;;;;;;5029976;28;20233;-69
2022/02/06 06:31:43;;;;;;;14.70;9.77;;;3.10;99.90;;;;;;5032617;28;20048;-69
2022/02/06 06:34:47;;;;;;;38.45;14.05;;;3.10;99.90;;;;;;5030311;28;20481;-69
2022/02/06 06:37:52;;;;;;;21.58;11.45;;;3.10;99.90;;;;;;5031342;28;20048;-69
2022/02/06 06:40:56;;;;;;;67.63;13.20;;;3.00;99.90;;;;;;5030303;28;20052;-69
2022/02/06 06:44:00;;;;;;;103.68;15.18;;;3.00;99.90;;;;;;5030453;28;20044;-69
2022/02/06 06:47:06;;;;;;;48.25;11.07;;;3.00;99.90;;;;;;5030102;28;20044;-69
2022/02/06 06:50:11;;;;;;;42.60;12.20;;;3.00;99.90;;;;;;5028948;28;20052;-69
2022/02/06 06:53:15;;;;;;;53.13;13.65;;;3.10;99.90;;;;;;5030910;28;20048;-68
2022/02/06 06:56:30;;;;;;;114.18;14.93;;;3.20;99.90;;;;;;5031243;28;20120;-69
2022/02/06 07:02:44;;;;;;;76.53;12.52;;;3.60;99.90;;;;;;5030346;28;20048;-69
2022/02/06 07:05:50;;;;;;;33.70;9.45;;;3.70;99.90;;;;;;5030148;28;20412;-69
2022/02/06 07:08:54;;;;;;;64.10;12.23;;;3.90;99.90;;;;;;5030230;28;20499;-69
2022/02/06 07:11:58;;;;;;;48.83;10.55;;;4.00;99.90;;;;;;5029865;28;20052;-69
2022/02/06 07:15:02;;;;;;;59.10;11.68;;;4.10;99.90;;;;;;5034091;28;20387;-69
2022/02/06 07:18:14;;;;;;;32.47;9.95;;;4.10;99.90;;;;;;5034015;28;20040;-69
2022/02/06 07:21:18;;;;;;;100.75;12.50;;;4.20;99.90;;;;;;5034548;28;20046;-69
2022/02/06 07:24:26;;;;;;;20.83;9.45;;;4.20;99.90;;;;;;5034223;28;20045;-69
2022/02/06 07:27:33;;;;;;;133.85;15.00;;;4.20;99.90;;;;;;5034657;28;20048;-69
2022/02/06 07:30:37;;;;;;;126.07;15.00;;;4.20;99.90;;;;;;5034334;28;20052;-69
2022/02/06 07:33:41;;;;;;;353.13;28.70;;;4.10;99.90;;;;;;5034468;28;20041;-70
2022/02/06 07:36:45;;;;;;;27.33;12.80;;;4.10;99.90;;;;;;5033404;28;20045;-69
2022/02/06 07:39:49;;;;;;;32.47;12.18;;;4.20;99.90;;;;;;5033069;28;20048;-69
2022/02/06 07:42:53;;;;;;;59.75;13.30;;;4.50;99.90;;;;;;5034588;28;20495;-69
2022/02/06 07:46:10;;;;;;;103.47;14.80;;;4.50;99.90;;;;;;5032652;28;20048;-69
2022/02/06 07:49:15;;;;;;;29.85;9.85;;;4.80;99.90;;;;;;5033040;28;20045;-69
2022/02/06 07:52:22;;;;;;;30.25;9.43;;;4.90;99.90;;;;;;5033322;28;20048;-69
2022/02/06 07:55:26;;;;;;;138.43;15.43;;;4.90;99.90;;;;;;5032985;28;20044;-69
2022/02/06 07:58:32;;;;;;;21.05;9.13;;;5.00;99.90;;;;;;5033327;28;20403;-69
2022/02/06 08:01:36;;;;;;;30.30;9.52;;;5.20;99.90;;;;;;5034102;28;20048;-69
2022/02/06 08:04:40;;;;;;;80.63;10.88;;;5.30;99.90;;;;;;5033523;28;20072;-69
2022/02/06 08:07:47;;;;;;;37.80;8.95;;;5.40;99.90;;;;;;5033182;28;20032;-69
2022/02/06 08:10:58;;;;;;;48.15;9.95;;;5.60;99.90;;;;;;5033175;28;20456;-69
2022/02/06 08:14:02;;;;;;;14.73;8.20;;;5.80;99.90;;;;;;5034317;28;20396;-69
2022/02/06 08:17:07;;;;;;;67.55;9.73;;;5.70;99.90;;;;;;5033190;28;20048;-69
2022/02/06 08:20:16;;;;;;;62.70;10.00;;;5.80;99.90;;;;;;5033635;28;20056;-69
2022/02/06 08:23:21;;;;;;;91.80;9.60;;;6.10;99.90;;;;;;5032485;28;20045;-69
2022/02/06 08:26:25;;;;;;;73.35;10.95;;;6.30;99.90;;;;;;5032095;28;20068;-69
2022/02/06 08:29:29;;;;;;;300.02;20.08;;;6.20;99.90;;;;;;5032430;28;20128;-69
2022/02/06 08:32:34;;;;;;;284.98;19.70;;;6.00;99.90;;;;;;5032945;28;20056;-69
2022/02/06 08:35:38;;;;;;;302.92;20.67;;;5.50;99.90;;;;;;5033567;28;20491;-68
2022/02/06 08:38:43;;;;;;;438.48;26.65;;;5.30;99.90;;;;;;5032211;28;20053;-68
2022/02/06 08:41:47;;;;;;;445.02;27.58;;;5.40;99.90;;;;;;5032803;28;20064;-69
2022/02/06 08:44:51;;;;;;;21.33;8.82;;;5.70;99.90;;;;;;5033065;28;20040;-69
2022/02/06 08:47:56;;;;;;;220.85;18.30;;;6.10;99.90;;;;;;5032766;28;20056;-68
2022/02/06 08:51:01;;;;;;;217.85;21.95;;;5.80;99.90;;;;;;5032726;28;20040;-69
2022/02/06 08:54:05;;;;;;;64.70;13.38;;;6.00;99.90;;;;;;5032263;28;20052;-69
2022/02/06 08:57:16;;;;;;;321.35;20.95;;;6.50;99.90;;;;;;5031590;28;20041;-69
2022/02/06 09:00:22;;;;;;;103.25;15.98;;;6.40;99.90;;;;;;5031538;28;20060;-68
2022/02/06 09:03:26;;;;;;;120.20;19.05;;;6.50;99.90;;;;;;5032137;28;20041;-69
2022/02/06 09:06:31;;;;;;;74.28;16.25;;;6.90;99.90;;;;;;5031097;28;20049;-69
2022/02/06 09:09:35;;;;;;;171.80;20.58;;;7.30;99.90;;;;;;5031824;28;20452;-69
2022/02/06 09:12:53;;;;;;;76.22;16.85;;;7.50;99.90;;;;;;5031935;28;20121;-68
2022/02/06 09:15:57;;;;;;;44.58;14.40;;;7.90;99.90;;;;;;5033634;28;20048;-69
2022/02/06 09:19:01;;;;;;;44.75;15.82;;;8.30;99.90;;;;;;5031165;28;20060;-69
2022/02/06 09:22:08;;;;;;;103.97;19.45;;;8.80;99.90;;;;;;5031725;28;20048;-69
2022/02/06 09:25:13;;;;;;;69.30;17.17;;;9.30;99.90;;;;;;5031532;28;20057;-69
2022/02/06 09:28:17;;;;;;;88.78;14.35;;;9.70;99.90;;;;;;5030746;28;20052;-69
2022/02/06 09:31:25;;;;;;;224.55;21.40;;;10.00;99.90;;;;;;5031297;28;20048;-69
2022/02/06 09:37:34;;;;;;;62.35;15.27;;;10.30;99.90;;;;;;5031279;28;20040;-69
2022/02/06 09:40:43;;;;;;;35.05;13.15;;;10.70;99.90;;;;;;5031142;28;20131;-69
2022/02/06 09:43:50;;;;;;;165.55;20.55;;;11.20;99.90;;;;;;5031426;28;20049;-69
2022/02/06 09:46:58;;;;;;;49.58;15.90;;;11.70;99.90;;;;;;5032044;28;20045;-69
2022/02/06 09:50:04;;;;;;;152.75;19.23;;;12.30;99.90;;;;;;5030588;28;20396;-69
2022/02/06 09:53:08;;;;;;;385.85;24.13;;;12.70;99.90;;;;;;5031358;28;20052;-69
2022/02/06 09:56:13;;;;;;;66.25;14.68;;;11.30;99.90;;;;;;5030538;28;20052;-69
2022/02/06 09:59:22;;;;;;;44.90;11.23;;;12.50;99.90;;;;;;5031881;28;20045;-69
2022/02/06 10:02:33;;;;;;;87.78;13.85;;;12.40;99.90;;;;;;5030601;28;20105;-69
2022/02/06 10:05:41;;;;;;;80.78;13.77;;;12.20;99.90;;;;;;5031071;28;20048;-69
2022/02/06 10:08:51;;;;;;;36.78;12.23;;;12.50;99.90;;;;;;5033217;28;20048;-69
2022/02/06 10:11:56;;;;;;;52.35;14.13;;;12.80;99.90;;;;;;5032965;28;20052;-69
2022/02/06 10:15:00;;;;;;;155.07;17.73;;;12.50;99.90;;;;;;5031208;28;20053;-69
2022/02/06 10:18:05;;;;;;;129.45;20.83;;;12.00;99.90;;;;;;5033698;28;20049;-69
2022/02/06 10:21:14;;;;;;;196.30;21.35;;;11.90;99.90;;;;;;5030453;28;20056;-69
2022/02/06 10:24:31;;;;;;;88.63;20.42;;;11.60;99.90;;;;;;5031228;28;20044;-69
2022/02/06 10:28:32;;;;;;;63.42;18.38;;;12.20;99.90;;;;;;5030564;28;20396;-68
2022/02/06 10:31:24;;;;;;;46.35;15.52;;;12.70;99.90;;;;;;5030505;28;20036;-69
2022/02/06 10:34:30;;;;;;;35.85;16.75;;;13.30;99.90;;;;;;5030256;28;20044;-69
2022/02/06 10:37:34;;;;;;;27.40;14.90;;;13.60;99.90;;;;;;5030786;28;20397;-69
2022/02/06 10:40:38;;;;;;;31.95;14.57;;;14.60;99.90;;;;;;5030554;28;20058;-69
2022/02/06 10:44:00;;;;;;;30.15;14.95;;;16.20;99.90;;;;;;5030621;28;20396;-69
2022/02/06 10:47:04;;;;;;;35.00;13.85;;;16.30;99.90;;;;;;5030205;28;20052;-69
2022/02/06 10:50:23;;;;;;;62.53;15.77;;;15.70;99.90;;;;;;5030053;28;20052;-69
2022/02/06 10:53:27;;;;;;;125.40;17.35;;;16.00;99.90;;;;;;5030177;28;20049;-69
2022/02/06 10:56:32;;;;;;;51.53;15.27;;;15.80;99.90;;;;;;5029865;28;20044;-69
2022/02/06 10:59:47;;;;;;;30.15;17.20;;;15.90;99.90;;;;;;5029620;28;20487;-69
2022/02/06 11:03:09;;;;;;;51.83;17.88;;;15.10;99.90;;;;;;5030711;28;20099;-69
2022/02/06 11:06:42;;;;;;;39.58;16.95;;;16.00;99.90;;;;;;5030719;28;20072;-69
2022/02/06 11:09:47;;;;;;;24.77;16.77;;;16.80;99.90;;;;;;5029501;28;20378;-69
2022/02/06 11:12:54;;;;;;;20.63;15.45;;;18.70;99.90;;;;;;5029910;28;20392;-69
2022/02/06 11:16:13;;;;;;;18.63;14.45;;;19.40;99.90;;;;;;5029653;28;20044;-70
2022/02/06 11:19:20;;;;;;;20.48;17.10;;;19.80;99.90;;;;;;5029460;28;20037;-70
2022/02/06 11:22:26;;;;;;;19.40;15.40;;;21.10;99.90;;;;;;5029762;28;20040;-69
2022/02/06 11:25:32;;;;;;;23.05;17.73;;;22.10;98.50;;;;;;5030044;28;20226;-69
2022/02/06 11:28:36;;;;;;;19.73;15.45;;;19.00;99.90;;;;;;5029372;28;20072;-69
2022/02/06 11:31:43;;;;;;;23.67;18.08;;;20.90;99.90;;;;;;5030795;28;20056;-69
2022/02/06 11:34:48;;;;;;;20.17;15.88;;;21.80;99.90;;;;;;5030009;28;20048;-70
2022/02/06 11:45:33;;;;;;;18.92;14.10;;;21.60;97.40;;;;;;5029705;28;20048;-70
2022/02/06 11:48:39;;;;;;;15.77;13.95;;;22.40;97.00;;;;;;5029092;28;20044;-70
2022/02/06 11:51:56;;;;;;;16.90;14.23;;;21.80;96.30;;;;;;5029684;28;20052;-69
2022/02/06 11:55:00;;;;;;;18.38;15.05;;;21.60;97.60;;;;;;5030459;28;20412;-70
2022/02/06 11:58:27;;;;;;;12.98;11.60;;;23.40;95.50;;;;;;5029382;28;20041;-68
2022/02/06 12:01:32;;;;;;;15.82;12.85;;;25.20;94.50;;;;;;5033334;28;20116;-68
2022/02/06 12:04:36;;;;;;;12.63;11.32;;;27.40;92.80;;;;;;5033431;28;20053;-68
2022/02/06 12:07:52;;;;;;;10.85;9.75;;;28.20;91.00;;;;;;5032916;28;20044;-68
2022/02/06 12:10:59;;;;;;;12.55;11.13;;;28.10;89.20;;;;;;5033574;28;20037;-69
2022/02/06 12:14:19;;;;;;;12.02;10.73;;;29.50;86.50;;;;;;5033056;28;20048;-68
2022/02/06 12:20:46;;;;;;;13.20;11.88;;;27.70;84.20;;;;;;5033002;28;20637;-68
2022/02/06 12:24:01;;;;;;;13.07;11.75;;;26.50;84.90;;;;;;5032731;28;20041;-68
2022/02/06 12:27:21;;;;;;;13.13;11.77;;;25.10;87.70;;;;;;5032908;28;20360;-67
2022/02/06 12:30:30;;;;;;;14.50;13.00;;;23.70;88.00;;;;;;5032480;28;20072;-70
2022/02/06 12:33:56;;;;;;;16.60;13.63;;;19.50;93.40;;;;;;5032551;28;20049;-69
2022/02/06 12:37:18;;;;;;;15.35;12.75;;;18.90;96.20;;;;;;5031852;28;20084;-69
2022/02/06 12:40:25;;;;;;;14.65;12.25;;;19.60;95.60;;;;;;5032164;28;20044;-69
2022/02/06 12:43:33;;;;;;;16.25;12.88;;;19.90;96.90;;;;;;5033843;28;20060;-70
2022/02/06 12:46:39;;;;;;;15.55;12.18;;;21.10;95.00;;;;;;5033338;28;20053;-69
2022/02/06 12:49:43;;;;;;;18.55;13.60;;;22.00;94.50;;;;;;5032203;28;20495;-69
2022/02/06 12:52:48;;;;;;;23.80;14.27;;;23.00;93.30;;;;;;5033564;28;20060;-69
2022/02/06 12:55:54;;;;;;;20.60;16.75;;;21.70;93.90;;;;;;5033130;28;20064;-69
2022/02/06 12:58:59;;;;;;;21.38;17.98;;;20.80;94.80;;;;;;5031144;28;20041;-69
2022/02/06 13:02:06;;;;;;;21.15;13.65;;;17.40;99.50;;;;;;5032397;28;20045;-69
2022/02/06 13:05:14;;;;;;;17.02;12.57;;;17.20;99.90;;;;;;5032975;28;20045;-69
2022/02/06 13:08:18;;;;;;;19.90;14.43;;;18.20;99.90;;;;;;5032137;28;20044;-69
2022/02/06 13:11:30;;;;;;;19.05;15.40;;;20.60;98.00;;;;;;5032298;28;20420;-69
2022/02/06 13:15:33;;;;;;;20.65;15.00;;;21.60;95.50;;;;;;5031919;28;20037;-69
2022/02/06 13:18:22;;;;;;;14.98;11.07;;;21.40;96.20;;;;;;5032073;28;20048;-70
2022/02/06 13:28:05;;;;;;;11.38;8.38;;;24.50;92.80;;;;;;5031818;28;20052;-70
2022/02/06 13:34:40;;;;;;;14.27;10.77;;;24.50;93.10;;;;;;5031849;28;20044;-70
2022/02/06 13:37:47;;;;;;;11.55;9.38;;;24.20;92.60;;;;;;5032221;28;20387;-70
2022/02/06 13:40:51;;;;;;;12.77;9.93;;;23.30;93.60;;;;;;5031804;28;20503;-70
2022/02/06 13:43:57;;;;;;;12.98;9.98;;;21.90;95.00;;;;;;5031863;28;20044;-69
2022/02/06 13:47:03;;;;;;;12.75;10.18;;;20.60;96.70;;;;;;5031391;28;20052;-70
2022/02/06 13:50:11;;;;;;;12.18;9.65;;;19.50;98.50;;;;;;5030502;28;20060;-69
2022/02/06 13:53:23;;;;;;;15.27;11.50;;;18.60;99.90;;;;;;5031235;28;20052;-69
2022/02/06 13:56:28;;;;;;;16.58;12.02;;;18.10;99.90;;;;;;5030370;28;20056;-70
2022/02/06 13:59:43;;;;;;;16.83;11.98;;;18.30;99.90;;;;;;5030752;28;20048;-69
2022/02/06 14:02:54;;;;;;;17.48;12.15;;;18.00;99.90;;;;;;5031655;28;20049;-69
2022/02/06 14:05:59;;;;;;;17.98;12.45;;;18.40;99.90;;;;;;5030768;28;20036;-71
2022/02/06 14:09:18;;;;;;;19.20;13.88;;;18.50;99.90;;;;;;5029979;28;20052;-69
2022/02/06 14:12:24;;;;;;;37.75;25.60;;;18.50;99.90;;;;;;5031166;28;20045;-69
2022/02/06 14:15:30;;;;;;;15.77;10.60;;;19.00;99.90;;;;;;5030877;28;20511;-69
2022/02/06 14:18:45;;;;;;;22.42;15.27;;;21.10;99.10;;;;;;5031990;28;20052;-70
2022/02/06 14:21:50;;;;;;;14.68;9.40;;;23.60;95.90;;;;;;5030714;28;20045;-71
2022/02/06 14:24:57;;;;;;;10.05;7.18;;;25.30;93.60;;;;;;5030045;28;20048;-68
2022/02/06 14:28:22;;;;;;;10.75;7.10;;;26.30;91.80;;;;;;5031392;28;20408;-67
2022/02/06 14:31:30;;;;;;;9.77;7.15;;;27.30;90.50;;;;;;5031099;28;20056;-68
2022/02/06 14:34:35;;;;;;;11.00;7.55;;;27.40;88.30;;;;;;5029906;28;20041;-68
2022/02/06 14:37:54;;;;;;;12.20;7.13;;;26.70;88.40;;;;;;5030218;28;20511;-68
2022/02/06 14:44:26;;;;;;;10.63;7.75;;;25.60;89.40;;;;;;5031606;28;20045;-69
2022/02/06 14:47:30;;;;;;;10.75;7.32;;;24.00;90.50;;;;;;5030982;28;20041;-69
2022/02/06 14:50:36;;;;;;;12.07;7.72;;;22.50;92.20;;;;;;5031436;28;20053;-69
2022/02/06 14:53:40;;;;;;;11.77;7.00;;;22.10;93.00;;;;;;5031314;28;20634;-70
2022/02/06 14:56:44;;;;;;;13.95;7.50;;;22.50;93.50;;;;;;5031256;28;20044;-70
2022/02/06 14:59:48;;;;;;;11.23;7.30;;;23.20;92.40;;;;;;5030050;28;20040;-70
2022/02/06 15:02:52;;;;;;;9.38;6.75;;;23.90;91.40;;;;;;5031243;28;20053;-70
2022/02/06 15:05:56;;;;;;;9.98;6.50;;;23.80;90.70;;;;;;5031202;28;20044;-69
2022/02/06 15:09:01;;;;;;;11.15;5.75;;;22.40;91.80;;;;;;5030801;28;20052;-69
2022/02/06 15:12:05;;;;;;;13.00;6.30;;;20.60;93.60;;;;;;5030785;28;20068;-70
2022/02/06 15:15:11;;;;;;;11.40;5.35;;;19.50;95.20;;;;;;5031312;28;20554;-69
2022/02/06 15:18:35;;;;;;;10.95;6.50;;;19.50;95.80;;;;;;5030068;28;20040;-69
2022/02/06 15:21:41;;;;;;;11.68;5.40;;;20.20;95.30;;;;;;5030251;28;20056;-69
2022/02/06 15:24:46;;;;;;;10.48;5.63;;;20.40;94.60;;;;;;5029513;28;20538;-69
2022/02/06 15:27:50;;;;;;;9.20;5.55;;;20.10;94.80;;;;;;5030733;28;20048;-69
2022/02/06 15:30:54;;;;;;;9.65;5.78;;;19.80;95.30;;;;;;5030586;28;20053;-69
2022/02/06 15:33:59;;;;;;;12.40;6.35;;;19.10;96.00;;;;;;5031784;28;20064;-69
2022/02/06 15:37:04;;;;;;;15.07;9.63;;;18.20;97.20;;;;;;5035107;28;20048;-69
2022/02/06 15:40:14;;;;;;;9.40;6.07;;;17.50;98.30;;;;;;5034503;28;20104;-69
2022/02/06 15:43:18;;;;;;;11.25;7.20;;;16.60;99.30;;;;;;5034936;28;20036;-69
2022/02/06 15:46:25;;;;;;;15.50;9.82;;;16.30;99.90;;;;;;5034719;28;20033;-69
2022/02/06 15:49:29;;;;;;;10.85;5.68;;;16.70;99.90;;;;;;5034051;28;20050;-69
2022/02/06 15:52:34;;;;;;;7.03;4.50;;;16.90;99.90;;;;;;5033550;28;20048;-69
2022/02/06 15:55:39;;;;;;;9.57;5.00;;;16.60;99.90;;;;;;5033192;28;20041;-69
2022/02/06 15:58:43;;;;;;;7.47;5.63;;;16.30;99.90;;;;;;5033179;28;20405;-70
2022/02/06 16:01:49;;;;;;;8.05;5.22;;;15.70;99.90;;;;;;5033905;28;20048;-68
2022/02/06 16:04:54;;;;;;;13.10;5.57;;;15.30;99.90;;;;;;5034036;28;20044;-68
2022/02/06 16:07:59;;;;;;;8.18;5.18;;;14.80;99.90;;;;;;5034163;28;20044;-69
2022/02/06 16:11:04;;;;;;;11.50;6.28;;;14.40;99.90;;;;;;5034173;28;20045;-69
2022/02/06 16:14:09;;;;;;;19.85;8.30;;;13.90;99.90;;;;;;5034565;28;20396;-69
2022/02/06 16:17:14;;;;;;;13.82;7.35;;;13.60;99.90;;;;;;5033889;28;20052;-68
2022/02/06 16:20:18;;;;;;;15.13;7.10;;;13.30;99.90;;;;;;5035020;28;20040;-69
2022/02/06 16:23:25;;;;;;;10.23;6.28;;;13.10;99.90;;;;;;5034474;28;20052;-69
2022/02/06 16:26:30;;;;;;;10.25;6.00;;;12.90;99.90;;;;;;5034372;28;20060;-69
2022/02/06 16:29:39;;;;;;;19.23;8.20;;;12.70;99.90;;;;;;5033960;28;20399;-69
2022/02/06 16:32:43;;;;;;;16.17;6.75;;;12.60;99.90;;;;;;5034295;28;20060;-69
2022/02/06 16:35:48;;;;;;;11.98;6.57;;;12.40;99.90;;;;;;5034216;28;20060;-69
2022/02/06 16:38:54;;;;;;;12.85;6.68;;;12.20;99.90;;;;;;5034479;28;20045;-69
2022/02/06 16:41:58;;;;;;;15.80;7.65;;;12.10;99.90;;;;;;5035187;28;20108;-69
2022/02/06 16:45:04;;;;;;;12.82;6.55;;;12.00;99.90;;;;;;5032660;28;20044;-69
2022/02/06 16:48:08;;;;;;;12.55;6.10;;;11.80;99.90;;;;;;5033985;28;20052;-69
2022/02/06 16:51:14;;;;;;;18.02;7.63;;;11.70;99.90;;;;;;5034240;28;20052;-69
2022/02/06 16:54:17;;;;;;;17.85;8.38;;;11.60;99.90;;;;;;5033106;28;20052;-68
2022/02/06 16:57:21;;;;;;;15.88;8.25;;;11.50;99.90;;;;;;5032948;28;20048;-69
2022/02/06 17:00:25;;;;;;;18.42;8.20;;;11.40;99.90;;;;;;5034967;28;20052;-68
2022/02/06 17:03:34;;;;;;;58.35;31.65;;;11.20;99.90;;;;;;5034428;28;20388;-69
2022/02/06 17:06:39;;;;;;;19.45;10.90;;;11.20;99.90;;;;;;5032881;28;20507;-68
2022/02/06 17:09:44;;;;;;;33.47;24.00;;;11.10;99.90;;;;;;5031654;28;20052;-69
2022/02/06 17:12:49;;;;;;;28.48;16.65;;;11.00;99.90;;;;;;5032778;28;20044;-68
2022/02/06 17:15:56;;;;;;;24.63;13.15;;;11.00;99.90;;;;;;5033817;28;20049;-68
2022/02/06 17:19:00;;;;;;;27.65;16.25;;;10.90;99.90;;;;;;5034701;28;20148;-68
2022/02/06 17:22:04;;;;;;;14.48;6.95;;;10.80;99.90;;;;;;5031960;28;20503;-69
2022/02/06 17:25:08;;;;;;;19.08;9.82;;;10.70;99.90;;;;;;5035735;28;20381;-69
2022/02/06 17:28:13;;;;;;;20.15;10.35;;;10.60;99.90;;;;;;5032506;28;20380;-69
2022/02/06 17:31:18;;;;;;;21.88;13.23;;;10.60;99.90;;;;;;5034077;28;20065;-68
2022/02/06 17:34:23;;;;;;;32.47;17.02;;;10.60;99.90;;;;;;5033447;28;20064;-69
2022/02/06 17:37:27;;;;;;;20.25;9.98;;;10.50;99.90;;;;;;5034413;28;20048;-69
2022/02/06 17:40:31;;;;;;;28.67;15.40;;;10.50;99.90;;;;;;5031349;28;20523;-68
2022/02/06 17:43:35;;;;;;;24.63;10.70;;;10.40;99.90;;;;;;5032997;28;20250;-69
2022/02/06 17:46:40;;;;;;;26.63;14.75;;;10.30;99.90;;;;;;5032360;28;20048;-68
2022/02/06 17:49:44;;;;;;;20.48;11.95;;;10.30;99.90;;;;;;5030904;28;20048;-68
2022/02/06 17:52:53;;;;;;;26.10;13.25;;;10.30;99.90;;;;;;5031031;28;20587;-68
2022/02/06 17:55:57;;;;;;;43.17;25.90;;;10.30;99.90;;;;;;5030560;28;20068;-68
2022/02/06 17:59:05;;;;;;;21.92;8.93;;;10.30;99.90;;;;;;5033802;28;20052;-68
2022/02/06 18:02:13;;;;;;;36.28;22.17;;;10.20;99.90;;;;;;5033150;28;20515;-68
2022/02/06 18:05:17;;;;;;;11.52;4.90;;;10.20;99.90;;;;;;5032695;28;20040;-68
2022/02/06 18:08:22;;;;;;;16.00;5.68;;;10.20;99.90;;;;;;5030934;28;20048;-69
2022/02/06 18:11:26;;;;;;;18.48;10.02;;;10.10;99.90;;;;;;5033519;28;20499;-69
2022/02/06 18:14:30;;;;;;;21.88;12.90;;;10.10;99.90;;;;;;5033799;28;20060;-68
2022/02/06 18:17:34;;;;;;;36.00;18.52;;;10.00;99.90;;;;;;5033991;28;20487;-68
2022/02/06 18:20:38;;;;;;;21.95;10.10;;;9.90;99.90;;;;;;5033787;28;20040;-68
2022/02/06 18:23:43;;;;;;;16.42;9.13;;;9.90;99.90;;;;;;5034176;28;20103;-69
2022/02/06 18:26:46;;;;;;;18.98;9.07;;;9.80;99.90;;;;;;5029749;28;20056;-68
2022/02/06 18:29:53;;;;;;;17.65;10.32;;;9.70;99.90;;;;;;5030242;28;20064;-68
2022/02/06 18:32:57;;;;;;;25.35;14.48;;;9.60;99.90;;;;;;5030689;28;20052;-69
2022/02/06 18:36:05;;;;;;;30.50;18.23;;;9.50;99.90;;;;;;5031053;28;20052;-69
2022/02/06 18:39:09;;;;;;;64.88;38.08;;;9.50;99.90;;;;;;5029988;28;20040;-68
2022/02/06 18:42:13;;;;;;;62.28;34.92;;;9.40;99.90;;;;;;5030622;28;20053;-69